sensor_id;sensor_type;location;lat;lon;timestamp;pressure;altitude;pressure_sealevel;temperature;humidity
17781;BME280;8498;52.516;13.790;2024-02-14T00:05:19;101426.28;;;2.81;100.00
17781;BME280;8498;52.516;13.790;2024-02-14T00:10:41;101431.84;;;2.69;100.00
17781;BME280;8498;52.516;13.790;2024-02-14T00:16:07;101437.94;;;2.70;100.00
17781;BME280;8498;52.516;13.790;2024-02-14T00:21:29;101432.16;;;2.55;100.00
17781;BME280;8498;52.516;13.790;2024-02-14T00:26:51;101437.59;;;2.48;100.00
17781;BME280;8498;52.516;13.790;2024-02-14T00:32:14;101435.19;;;2.37;100.00
17781;BME280;8498;52.516;13.790;2024-02-14T00:37:36;101433.44;;;2.38;100.00
17781;BME280;8498;52.516;13.790;2024-02-14T00:42:59;101438.63;;;2.39;100.00
17781;BME280;8498;52.516;13.790;2024-02-14T00:48:21;101435.91;;;2.44;100.00
17781;BME280;8498;52.516;13.790;2024-02-14T00:53:44;101427.09;;;2.48;100.00
17781;BME280;8498;52.516;13.790;2024-02-14T00:59:06;101435.84;;;2.47;100.00
17781;BME280;8498;52.516;13.790;2024-02-14T01:04:29;101433.19;;;2.48;100.00
17781;BME280;8498;52.516;13.790;2024-02-14T01:09:52;101441.16;;;2.44;100.00
17781;BME280;8498;52.516;13.790;2024-02-14T01:15:14;101447.31;;;2.41;100.00
17781;BME280;8498;52.516;13.790;2024-02-14T01:20:36;101439.31;;;2.49;100.00
17781;BME280;8498;52.516;13.790;2024-02-14T01:25:59;101438.34;;;2.51;100.00
17781;BME280;8498;52.516;13.790;2024-02-14T01:31:21;101434.84;;;2.52;100.00
17781;BME280;8498;52.516;13.790;2024-02-14T01:36:44;101430.19;;;2.65;100.00
17781;BME280;8498;52.516;13.790;2024-02-14T01:49:59;101419.22;;;2.48;100.00
17781;BME280;8498;52.516;13.790;2024-02-14T01:55:22;101409.59;;;2.48;100.00
17781;BME280;8498;52.516;13.790;2024-02-14T02:00:50;101411.34;;;2.48;100.00
17781;BME280;8498;52.516;13.790;2024-02-14T02:06:17;101405.97;;;2.54;100.00
17781;BME280;8498;52.516;13.790;2024-02-14T02:11:48;101407.84;;;2.49;100.00
17781;BME280;8498;52.516;13.790;2024-02-14T02:17:10;101404.38;;;2.47;100.00
17781;BME280;8498;52.516;13.790;2024-02-14T02:22:33;101406.03;;;2.51;100.00
17781;BME280;8498;52.516;13.790;2024-02-14T02:27:57;101391.03;;;2.57;100.00
17781;BME280;8498;52.516;13.790;2024-02-14T02:33:19;101390.00;;;2.63;100.00
17781;BME280;8498;52.516;13.790;2024-02-14T02:38:43;101386.13;;;2.79;100.00
17781;BME280;8498;52.516;13.790;2024-02-14T02:44:06;101381.53;;;2.87;100.00
17781;BME280;8498;52.516;13.790;2024-02-14T02:49:28;101385.69;;;2.96;100.00
17781;BME280;8498;52.516;13.790;2024-02-14T02:54:51;101384.16;;;2.87;100.00
17781;BME280;8498;52.516;13.790;2024-02-14T03:00:15;101384.09;;;2.90;100.00
17781;BME280;8498;52.516;13.790;2024-02-14T03:05:37;101374.97;;;3.04;100.00
17781;BME280;8498;52.516;13.790;2024-02-14T03:11:07;101379.31;;;3.05;100.00
17781;BME280;8498;52.516;13.790;2024-02-14T03:16:29;101366.50;;;2.92;100.00
17781;BME280;8498;52.516;13.790;2024-02-14T03:21:52;101358.56;;;2.95;100.00
17781;BME280;8498;52.516;13.790;2024-02-14T03:27:14;101347.75;;;3.08;100.00
17781;BME280;8498;52.516;13.790;2024-02-14T03:32:36;101345.91;;;3.11;100.00
17781;BME280;8498;52.516;13.790;2024-02-14T03:38:00;101364.09;;;3.19;100.00
17781;BME280;8498;52.516;13.790;2024-02-14T03:43:23;101365.72;;;3.23;100.00
17781;BME280;8498;52.516;13.790;2024-02-14T03:48:49;101358.00;;;3.17;100.00
17781;BME280;8498;52.516;13.790;2024-02-14T03:54:12;101347.47;;;3.18;100.00
17781;BME280;8498;52.516;13.790;2024-02-14T03:59:37;101346.53;;;3.21;100.00
17781;BME280;8498;52.516;13.790;2024-02-14T04:05:01;101342.66;;;3.34;100.00
17781;BME280;8498;52.516;13.790;2024-02-14T04:10:24;101335.25;;;3.48;100.00
17781;BME280;8498;52.516;13.790;2024-02-14T04:15:46;101323.63;;;3.57;100.00
17781;BME280;8498;52.516;13.790;2024-02-14T04:21:09;101326.31;;;3.54;100.00
17781;BME280;8498;52.516;13.790;2024-02-14T04:26:31;101333.00;;;3.65;100.00
17781;BME280;8498;52.516;13.790;2024-02-14T04:31:53;101334.56;;;3.73;100.00
17781;BME280;8498;52.516;13.790;2024-02-14T04:37:16;101320.28;;;3.81;100.00
17781;BME280;8498;52.516;13.790;2024-02-14T04:42:43;101323.41;;;3.94;100.00
17781;BME280;8498;52.516;13.790;2024-02-14T04:48:05;101325.69;;;4.04;100.00
17781;BME280;8498;52.516;13.790;2024-02-14T04:53:31;101321.78;;;4.16;100.00
17781;BME280;8498;52.516;13.790;2024-02-14T04:58:54;101326.06;;;4.20;100.00
17781;BME280;8498;52.516;13.790;2024-02-14T05:04:17;101317.19;;;4.24;100.00
17781;BME280;8498;52.516;13.790;2024-02-14T05:09:39;101310.75;;;4.33;100.00
17781;BME280;8498;52.516;13.790;2024-02-14T05:15:02;101302.81;;;4.34;100.00
17781;BME280;8498;52.516;13.790;2024-02-14T05:20:26;101308.09;;;4.34;100.00
17781;BME280;8498;52.516;13.790;2024-02-14T05:25:48;101300.78;;;4.42;100.00
17781;BME280;8498;52.516;13.790;2024-02-14T05:31:12;101291.22;;;4.40;100.00
17781;BME280;8498;52.516;13.790;2024-02-14T05:37:00;101292.00;;;4.43;100.00
17781;BME280;8498;52.516;13.790;2024-02-14T05:42:22;101286.63;;;4.47;100.00
17781;BME280;8498;52.516;13.790;2024-02-14T05:47:44;101276.22;;;4.43;100.00
17781;BME280;8498;52.516;13.790;2024-02-14T05:53:07;101274.69;;;4.36;100.00
17781;BME280;8498;52.516;13.790;2024-02-14T05:58:29;101278.84;;;4.43;100.00
17781;BME280;8498;52.516;13.790;2024-02-14T06:03:51;101267.06;;;4.55;100.00
17781;BME280;8498;52.516;13.790;2024-02-14T06:09:13;101273.00;;;4.60;100.00
17781;BME280;8498;52.516;13.790;2024-02-14T06:14:36;101264.09;;;4.64;100.00
17781;BME280;8498;52.516;13.790;2024-02-14T06:19:58;101269.41;;;4.63;100.00
17781;BME280;8498;52.516;13.790;2024-02-14T06:25:20;101271.72;;;4.72;100.00
17781;BME280;8498;52.516;13.790;2024-02-14T06:30:43;101262.06;;;4.72;100.00
17781;BME280;8498;52.516;13.790;2024-02-14T06:36:05;101267.19;;;4.77;100.00
17781;BME280;8498;52.516;13.790;2024-02-14T06:41:27;101270.44;;;4.84;100.00
17781;BME280;8498;52.516;13.790;2024-02-14T06:46:49;101256.38;;;4.85;100.00
17781;BME280;8498;52.516;13.790;2024-02-14T06:52:11;101269.84;;;5.00;100.00
17781;BME280;8498;52.516;13.790;2024-02-14T06:57:34;101254.66;;;5.08;100.00
17781;BME280;8498;52.516;13.790;2024-02-14T07:02:56;101260.69;;;5.10;100.00
17781;BME280;8498;52.516;13.790;2024-02-14T07:08:18;101253.66;;;5.11;100.00
17781;BME280;8498;52.516;13.790;2024-02-14T07:13:40;101245.41;;;5.20;100.00
17781;BME280;8498;52.516;13.790;2024-02-14T07:19:02;101244.09;;;5.32;100.00
17781;BME280;8498;52.516;13.790;2024-02-14T07:24:25;101243.19;;;5.33;100.00
17781;BME280;8498;52.516;13.790;2024-02-14T07:29:48;101242.84;;;5.42;100.00
17781;BME280;8498;52.516;13.790;2024-02-14T07:35:11;101241.75;;;5.47;100.00
17781;BME280;8498;52.516;13.790;2024-02-14T07:40:35;101227.38;;;5.56;100.00
17781;BME280;8498;52.516;13.790;2024-02-14T07:45:58;101226.09;;;5.66;100.00
17781;BME280;8498;52.516;13.790;2024-02-14T07:51:21;101223.34;;;5.69;100.00
17781;BME280;8498;52.516;13.790;2024-02-14T07:56:43;101234.44;;;5.77;100.00
17781;BME280;8498;52.516;13.790;2024-02-14T08:02:06;101234.94;;;5.87;100.00
17781;BME280;8498;52.516;13.790;2024-02-14T08:07:28;101231.34;;;5.89;100.00
17781;BME280;8498;52.516;13.790;2024-02-14T08:12:50;101238.34;;;5.91;100.00
17781;BME280;8498;52.516;13.790;2024-02-14T08:18:12;101236.84;;;6.05;100.00
17781;BME280;8498;52.516;13.790;2024-02-14T08:23:35;101234.91;;;6.10;100.00
17781;BME280;8498;52.516;13.790;2024-02-14T08:28:57;101224.03;;;6.18;100.00
17781;BME280;8498;52.516;13.790;2024-02-14T08:34:20;101229.19;;;6.21;100.00
17781;BME280;8498;52.516;13.790;2024-02-14T08:39:42;101225.31;;;6.30;100.00
17781;BME280;8498;52.516;13.790;2024-02-14T08:45:05;101219.59;;;6.40;100.00
17781;BME280;8498;52.516;13.790;2024-02-14T08:50:28;101213.50;;;6.58;100.00
17781;BME280;8498;52.516;13.790;2024-02-14T08:55:52;101211.84;;;6.76;100.00
17781;BME280;8498;52.516;13.790;2024-02-14T09:01:14;101197.25;;;6.88;100.00
17781;BME280;8498;52.516;13.790;2024-02-14T09:06:37;101211.91;;;6.95;99.51
17781;BME280;8498;52.516;13.790;2024-02-14T09:12:01;101209.78;;;7.03;98.36
17781;BME280;8498;52.516;13.790;2024-02-14T09:17:24;101204.22;;;7.09;98.10
17781;BME280;8498;52.516;13.790;2024-02-14T09:22:47;101201.50;;;7.11;97.69
17781;BME280;8498;52.516;13.790;2024-02-14T09:28:09;101202.06;;;7.17;98.87
17781;BME280;8498;52.516;13.790;2024-02-14T09:33:31;101206.22;;;7.23;98.77
17781;BME280;8498;52.516;13.790;2024-02-14T09:38:54;101196.09;;;7.32;99.25
17781;BME280;8498;52.516;13.790;2024-02-14T09:44:17;101196.06;;;7.51;99.19
17781;BME280;8498;52.516;13.790;2024-02-14T09:49:39;101197.28;;;7.63;98.44
17781;BME280;8498;52.516;13.790;2024-02-14T09:55:02;101200.59;;;7.68;97.72
17781;BME280;8498;52.516;13.790;2024-02-14T10:00:27;101201.22;;;7.73;97.42
17781;BME280;8498;52.516;13.790;2024-02-14T10:05:49;101190.31;;;7.79;97.98
17781;BME280;8498;52.516;13.790;2024-02-14T10:11:13;101191.59;;;7.89;98.43
17781;BME280;8498;52.516;13.790;2024-02-14T10:16:37;101197.72;;;7.90;98.40
17781;BME280;8498;52.516;13.790;2024-02-14T10:22:00;101199.38;;;7.92;99.81
17781;BME280;8498;52.516;13.790;2024-02-14T10:27:25;101194.28;;;8.06;100.00
17781;BME280;8498;52.516;13.790;2024-02-14T10:32:47;101198.31;;;7.96;100.00
17781;BME280;8498;52.516;13.790;2024-02-14T10:38:11;101190.38;;;7.96;100.00
17781;BME280;8498;52.516;13.790;2024-02-14T10:43:33;101191.00;;;8.01;100.00
17781;BME280;8498;52.516;13.790;2024-02-14T10:48:58;101191.97;;;8.18;100.00
17781;BME280;8498;52.516;13.790;2024-02-14T10:54:24;101172.75;;;8.31;100.00
17781;BME280;8498;52.516;13.790;2024-02-14T10:59:48;101178.81;;;8.33;100.00
17781;BME280;8498;52.516;13.790;2024-02-14T11:05:12;101172.13;;;8.43;100.00
17781;BME280;8498;52.516;13.790;2024-02-14T11:10:37;101159.03;;;8.58;100.00
17781;BME280;8498;52.516;13.790;2024-02-14T11:16:01;101161.84;;;8.55;100.00
17781;BME280;8498;52.516;13.790;2024-02-14T11:21:28;101166.84;;;8.61;100.00
17781;BME280;8498;52.516;13.790;2024-02-14T11:26:51;101167.44;;;8.66;100.00
17781;BME280;8498;52.516;13.790;2024-02-14T11:32:17;101157.94;;;8.95;100.00
17781;BME280;8498;52.516;13.790;2024-02-14T11:37:40;101157.03;;;9.11;100.00
17781;BME280;8498;52.516;13.790;2024-02-14T11:43:03;101164.84;;;9.30;100.00
17781;BME280;8498;52.516;13.790;2024-02-14T11:48:28;101151.06;;;9.39;100.00
17781;BME280;8498;52.516;13.790;2024-02-14T11:53:51;101147.13;;;9.46;100.00
17781;BME280;8498;52.516;13.790;2024-02-14T11:59:13;101148.78;;;9.33;100.00
17781;BME280;8498;52.516;13.790;2024-02-14T12:04:38;101147.06;;;9.32;100.00
17781;BME280;8498;52.516;13.790;2024-02-14T12:10:00;101155.75;;;9.18;100.00
17781;BME280;8498;52.516;13.790;2024-02-14T12:15:22;101149.75;;;9.15;100.00
17781;BME280;8498;52.516;13.790;2024-02-14T12:20:45;101152.75;;;9.09;100.00
17781;BME280;8498;52.516;13.790;2024-02-14T12:26:08;101154.56;;;9.40;100.00
17781;BME280;8498;52.516;13.790;2024-02-14T12:31:37;101143.22;;;9.53;100.00
17781;BME280;8498;52.516;13.790;2024-02-14T12:36:59;101142.00;;;9.43;100.00
17781;BME280;8498;52.516;13.790;2024-02-14T12:42:21;101135.25;;;9.22;100.00
17781;BME280;8498;52.516;13.790;2024-02-14T12:47:47;101131.31;;;9.29;100.00
17781;BME280;8498;52.516;13.790;2024-02-14T12:53:09;101133.72;;;9.34;100.00
17781;BME280;8498;52.516;13.790;2024-02-14T12:58:32;101139.34;;;9.43;100.00
17781;BME280;8498;52.516;13.790;2024-02-14T13:03:54;101136.53;;;9.62;100.00
17781;BME280;8498;52.516;13.790;2024-02-14T13:09:16;101145.59;;;9.58;100.00
17781;BME280;8498;52.516;13.790;2024-02-14T13:14:39;101149.44;;;9.52;100.00
17781;BME280;8498;52.516;13.790;2024-02-14T13:20:02;101148.59;;;9.52;100.00
17781;BME280;8498;52.516;13.790;2024-02-14T13:25:25;101150.81;;;9.60;100.00
17781;BME280;8498;52.516;13.790;2024-02-14T13:30:47;101151.81;;;9.73;100.00
17781;BME280;8498;52.516;13.790;2024-02-14T13:36:10;101146.84;;;9.67;100.00
17781;BME280;8498;52.516;13.790;2024-02-14T13:41:32;101142.41;;;9.83;100.00
17781;BME280;8498;52.516;13.790;2024-02-14T13:46:54;101142.31;;;9.69;100.00
17781;BME280;8498;52.516;13.790;2024-02-14T13:52:17;101148.28;;;9.88;100.00
17781;BME280;8498;52.516;13.790;2024-02-14T13:57:39;101149.41;;;9.84;100.00
17781;BME280;8498;52.516;13.790;2024-02-14T14:03:02;101153.00;;;9.83;100.00
17781;BME280;8498;52.516;13.790;2024-02-14T14:08:24;101151.22;;;9.83;100.00
17781;BME280;8498;52.516;13.790;2024-02-14T14:13:46;101153.59;;;9.88;100.00
17781;BME280;8498;52.516;13.790;2024-02-14T14:19:08;101156.44;;;9.85;100.00
17781;BME280;8498;52.516;13.790;2024-02-14T14:24:31;101156.78;;;9.79;100.00
17781;BME280;8498;52.516;13.790;2024-02-14T14:29:53;101164.47;;;9.68;100.00
17781;BME280;8498;52.516;13.790;2024-02-14T14:35:15;101166.19;;;9.84;100.00
17781;BME280;8498;52.516;13.790;2024-02-14T14:40:38;101161.53;;;9.88;100.00
17781;BME280;8498;52.516;13.790;2024-02-14T14:46:01;101166.13;;;9.86;100.00
17781;BME280;8498;52.516;13.790;2024-02-14T14:51:23;101162.59;;;9.85;100.00
17781;BME280;8498;52.516;13.790;2024-02-14T14:56:45;101161.63;;;9.86;100.00
17781;BME280;8498;52.516;13.790;2024-02-14T15:02:08;101175.94;;;9.84;100.00
17781;BME280;8498;52.516;13.790;2024-02-14T15:07:30;101169.41;;;9.89;100.00
17781;BME280;8498;52.516;13.790;2024-02-14T15:12:53;101173.00;;;9.88;100.00
17781;BME280;8498;52.516;13.790;2024-02-14T15:18:15;101172.34;;;9.85;100.00
17781;BME280;8498;52.516;13.790;2024-02-14T15:23:37;101178.16;;;9.91;100.00
17781;BME280;8498;52.516;13.790;2024-02-14T15:28:59;101167.09;;;9.99;100.00
17781;BME280;8498;52.516;13.790;2024-02-14T15:34:40;101172.69;;;9.94;100.00
17781;BME280;8498;52.516;13.790;2024-02-14T15:40:04;101183.78;;;10.01;100.00
17781;BME280;8498;52.516;13.790;2024-02-14T15:45:28;101189.78;;;10.05;100.00
17781;BME280;8498;52.516;13.790;2024-02-14T15:50:50;101185.41;;;10.04;100.00
17781;BME280;8498;52.516;13.790;2024-02-14T15:56:13;101182.84;;;10.02;100.00
17781;BME280;8498;52.516;13.790;2024-02-14T16:01:36;101193.00;;;10.10;100.00
17781;BME280;8498;52.516;13.790;2024-02-14T16:07:00;101192.16;;;10.09;100.00
17781;BME280;8498;52.516;13.790;2024-02-14T16:12:22;101192.94;;;10.11;100.00
17781;BME280;8498;52.516;13.790;2024-02-14T16:17:45;101190.97;;;10.15;100.00
17781;BME280;8498;52.516;13.790;2024-02-14T16:23:08;101200.72;;;10.14;100.00
17781;BME280;8498;52.516;13.790;2024-02-14T16:28:30;101198.16;;;10.13;100.00
17781;BME280;8498;52.516;13.790;2024-02-14T16:33:52;101198.75;;;10.18;100.00
17781;BME280;8498;52.516;13.790;2024-02-14T16:39:15;101206.56;;;10.21;100.00
17781;BME280;8498;52.516;13.790;2024-02-14T16:44:56;101218.81;;;10.23;100.00
17781;BME280;8498;52.516;13.790;2024-02-14T16:50:18;101215.22;;;10.24;100.00
17781;BME280;8498;52.516;13.790;2024-02-14T16:55:40;101212.56;;;10.24;100.00
17781;BME280;8498;52.516;13.790;2024-02-14T17:01:02;101216.16;;;10.23;100.00
17781;BME280;8498;52.516;13.790;2024-02-14T17:06:25;101219.50;;;10.27;100.00
17781;BME280;8498;52.516;13.790;2024-02-14T17:11:48;101224.69;;;10.28;100.00
17781;BME280;8498;52.516;13.790;2024-02-14T17:17:10;101225.38;;;10.32;100.00
17781;BME280;8498;52.516;13.790;2024-02-14T17:22:32;101226.25;;;10.33;100.00
17781;BME280;8498;52.516;13.790;2024-02-14T17:27:54;101219.91;;;10.35;100.00
17781;BME280;8498;52.516;13.790;2024-02-14T17:33:16;101225.47;;;10.30;100.00
17781;BME280;8498;52.516;13.790;2024-02-14T17:38:39;101233.09;;;10.37;100.00
17781;BME280;8498;52.516;13.790;2024-02-14T17:44:01;101230.34;;;10.38;100.00
17781;BME280;8498;52.516;13.790;2024-02-14T17:49:24;101224.34;;;10.35;100.00
17781;BME280;8498;52.516;13.790;2024-02-14T17:54:47;101227.94;;;10.34;100.00
17781;BME280;8498;52.516;13.790;2024-02-14T18:00:10;101227.00;;;10.35;100.00
17781;BME280;8498;52.516;13.790;2024-02-14T18:05:34;101229.50;;;10.38;100.00
17781;BME280;8498;52.516;13.790;2024-02-14T18:10:58;101225.03;;;10.38;100.00
17781;BME280;8498;52.516;13.790;2024-02-14T18:16:21;101237.34;;;10.39;100.00
17781;BME280;8498;52.516;13.790;2024-02-14T18:21:43;101231.19;;;10.39;100.00
17781;BME280;8498;52.516;13.790;2024-02-14T18:27:05;101238.13;;;10.41;100.00
17781;BME280;8498;52.516;13.790;2024-02-14T18:32:27;101245.06;;;10.44;100.00
17781;BME280;8498;52.516;13.790;2024-02-14T18:37:50;101243.94;;;10.48;100.00
17781;BME280;8498;52.516;13.790;2024-02-14T18:43:12;101235.00;;;10.49;100.00
17781;BME280;8498;52.516;13.790;2024-02-14T18:48:34;101235.00;;;10.49;100.00
17781;BME280;8498;52.516;13.790;2024-02-14T18:53:59;101233.88;;;10.53;100.00
17781;BME280;8498;52.516;13.790;2024-02-14T18:59:22;101231.22;;;10.53;100.00
17781;BME280;8498;52.516;13.790;2024-02-14T19:04:44;101216.84;;;10.57;100.00
17781;BME280;8498;52.516;13.790;2024-02-14T19:10:06;101228.19;;;10.59;100.00
17781;BME280;8498;52.516;13.790;2024-02-14T19:15:28;101223.66;;;10.61;100.00
17781;BME280;8498;52.516;13.790;2024-02-14T19:20:51;101228.19;;;10.59;100.00
17781;BME280;8498;52.516;13.790;2024-02-14T19:26:14;101241.47;;;10.59;100.00
17781;BME280;8498;52.516;13.790;2024-02-14T19:31:36;101243.03;;;10.63;100.00
17781;BME280;8498;52.516;13.790;2024-02-14T19:36:58;101239.44;;;10.64;100.00
17781;BME280;8498;52.516;13.790;2024-02-14T19:42:20;101249.09;;;10.65;100.00
17781;BME280;8498;52.516;13.790;2024-02-14T19:47:43;101243.41;;;10.71;100.00
17781;BME280;8498;52.516;13.790;2024-02-14T19:53:05;101257.66;;;10.70;100.00
17781;BME280;8498;52.516;13.790;2024-02-14T19:58:27;101243.25;;;10.74;100.00
17781;BME280;8498;52.516;13.790;2024-02-14T20:03:49;101260.72;;;10.78;100.00
17781;BME280;8498;52.516;13.790;2024-02-14T20:09:11;101267.75;;;10.79;100.00
17781;BME280;8498;52.516;13.790;2024-02-14T20:14:34;101259.78;;;10.79;100.00
17781;BME280;8498;52.516;13.790;2024-02-14T20:19:56;101258.72;;;10.82;100.00
17781;BME280;8498;52.516;13.790;2024-02-14T20:25:18;101243.72;;;10.81;100.00
17781;BME280;8498;52.516;13.790;2024-02-14T20:30:43;101246.28;;;10.82;100.00
17781;BME280;8498;52.516;13.790;2024-02-14T20:36:05;101251.44;;;10.85;100.00
17781;BME280;8498;52.516;13.790;2024-02-14T20:41:30;101245.34;;;10.83;100.00
17781;BME280;8498;52.516;13.790;2024-02-14T20:46:52;101247.06;;;10.84;100.00
17781;BME280;8498;52.516;13.790;2024-02-14T20:52:15;101245.44;;;10.82;100.00
17781;BME280;8498;52.516;13.790;2024-02-14T20:57:37;101253.78;;;10.76;100.00
17781;BME280;8498;52.516;13.790;2024-02-14T21:02:59;101251.91;;;10.78;100.00
17781;BME280;8498;52.516;13.790;2024-02-14T21:08:21;101264.50;;;10.74;100.00
17781;BME280;8498;52.516;13.790;2024-02-14T21:13:44;101267.75;;;10.79;100.00
17781;BME280;8498;52.516;13.790;2024-02-14T21:19:06;101257.94;;;10.80;100.00
17781;BME280;8498;52.516;13.790;2024-02-14T21:24:28;101276.38;;;10.83;100.00
17781;BME280;8498;52.516;13.790;2024-02-14T21:29:50;101265.84;;;10.81;100.00
17781;BME280;8498;52.516;13.790;2024-02-14T21:35:13;101270.97;;;10.84;100.00
17781;BME280;8498;52.516;13.790;2024-02-14T21:40:36;101267.28;;;10.87;100.00
17781;BME280;8498;52.516;13.790;2024-02-14T21:45:59;101272.00;;;10.82;100.00
17781;BME280;8498;52.516;13.790;2024-02-14T21:51:21;101258.63;;;10.83;100.00
17781;BME280;8498;52.516;13.790;2024-02-14T21:56:43;101271.16;;;10.81;100.00
17781;BME280;8498;52.516;13.790;2024-02-14T22:02:06;101263.66;;;10.74;100.00
17781;BME280;8498;52.516;13.790;2024-02-14T22:07:28;101273.06;;;10.79;100.00
17781;BME280;8498;52.516;13.790;2024-02-14T22:12:50;101268.09;;;10.73;100.00
17781;BME280;8498;52.516;13.790;2024-02-14T22:18:13;101266.22;;;10.75;100.00
17781;BME280;8498;52.516;13.790;2024-02-14T22:23:36;101272.56;;;10.73;100.00
17781;BME280;8498;52.516;13.790;2024-02-14T22:28:58;101264.88;;;10.68;100.00
17781;BME280;8498;52.516;13.790;2024-02-14T22:34:20;101273.59;;;10.70;100.00
17781;BME280;8498;52.516;13.790;2024-02-14T22:39:43;101268.47;;;10.67;100.00
17781;BME280;8498;52.516;13.790;2024-02-14T22:45:06;101264.28;;;10.63;100.00
17781;BME280;8498;52.516;13.790;2024-02-14T22:50:28;101272.53;;;10.58;100.00
17781;BME280;8498;52.516;13.790;2024-02-14T22:55:50;101265.22;;;10.62;100.00
17781;BME280;8498;52.516;13.790;2024-02-14T23:01:12;101274.22;;;10.59;100.00
17781;BME280;8498;52.516;13.790;2024-02-14T23:06:35;101263.88;;;10.55;100.00
17781;BME280;8498;52.516;13.790;2024-02-14T23:11:59;101266.94;;;10.63;100.00
17781;BME280;8498;52.516;13.790;2024-02-14T23:17:21;101266.94;;;10.63;100.00
17781;BME280;8498;52.516;13.790;2024-02-14T23:22:43;101256.59;;;10.58;100.00
17781;BME280;8498;52.516;13.790;2024-02-14T23:28:05;101258.19;;;10.61;100.00
17781;BME280;8498;52.516;13.790;2024-02-14T23:33:27;101266.25;;;10.59;100.00
17781;BME280;8498;52.516;13.790;2024-02-14T23:38:50;101245.19;;;10.56;100.00
17781;BME280;8498;52.516;13.790;2024-02-14T23:44:13;101244.44;;;10.54;100.00
17781;BME280;8498;52.516;13.790;2024-02-14T23:49:36;101253.09;;;10.58;100.00
17781;BME280;8498;52.516;13.790;2024-02-14T23:55:00;101256.47;;;10.60;100.00
